Branson, MO

2:30 PM CDT on April 19, 2015 (GMT -0500)
McGoldrick | | Change Station
CLOSE
Current Station
Personal Weather Station
Location: Branson, MO
Elevation: 912 ft
Nearby Weather Stations

Elev 912 ft 36.65 °N, 93.20 °W | Updated 10 seconds ago

Partly Cloudy
Partly Cloudy
76.4 °F
Feels Like 78 °F
N
6.0
Wind Variable Wind from WSW
Gusts 13.0 mph

Today
High -- | Low -- °F
--% Chance of Precip.
Yesterday
High -- | Low -- °F
Precip. -- in
6:34 AM 7:50 PM
New Moon, 2% visible
Pressure 29.68 in
Visibility 10.0 miles
Clouds Scattered Clouds 3000 ft
Mostly Cloudy 25000 ft
Heat Index 78 °F
Dew Point 56 °F
Humidity 49%
Rainfall 0.00 in
Snow Depth Not available.
UV 6 out of 12
Pollen 8.60 out of 12
Air Quality Not available.
Flu Activity Local Activity
METAR KBBG 191846Z 31012G18KT 10SM SCT030 BKN250 21/10 A2968

More Conditions Fewer Conditions

Pressure 29.68 in
Visibility 10.0 miles
Clouds Scattered Clouds 3000 ft
Mostly Cloudy 25000 ft
Heat Index 78 °F
Dew Point 56 °F
Humidity 49%
Rainfall 0.00 in
Snow Depth Not available.
UV 6 out of 12
Pollen 8.60 out of 12
Air Quality Not available.
Flu Activity Local Activity
METAR KBBG 191846Z 31012G18KT 10SM SCT030 BKN250 21/10 A2968

More Conditions Fewer Conditions

10-Day Weather Forecast

Almanac

Astronomy

Apr. 19, 2015 Rise Set
Actual Time
Civil Twilight
Nautical Twilight
Astronomical Twilight
Moon
Length of Visible Light
Length of Day
Tomorrow will be .
, % of the Moon is Illuminated

Today's Extremes

State Highs State Lows

Community

WunderPhotos

Upload Photos

1,814,944 photos uploaded!

WunderBlogs® & News

Nearby

Air Quality

  Air Quality AQ Index Pollutant
Not available.

Snow Depth

Station Depth Elevation

Earthquake Activity

City Distance Mag. Time & Date
Minimum magnitude displayed is 2.5.

Coastal Water Temperatures

Place Temperature

Stations

Nearby Weather Stations

Station Location Temp. Windchill Dew Point Humidity Wind Precip. Elev Updated Type